createdAt,value
2019-03-31T00:02:04.353Z,5.30
2019-03-31T00:05:06.111Z,5.30
2019-03-31T00:08:08.037Z,5.30
2019-03-31T00:11:10.003Z,5.30
2019-03-31T00:14:17.128Z,5.20
2019-03-31T00:17:19.248Z,5.20
2019-03-31T00:20:21.435Z,5.10
2019-03-31T00:23:28.892Z,5.20
2019-03-31T00:26:30.889Z,5.20
2019-03-31T00:29:32.235Z,5.20
2019-03-31T00:32:34.276Z,5.10
2019-03-31T00:35:36.138Z,5.00
2019-03-31T00:38:38.252Z,5.10
2019-03-31T00:41:40.216Z,4.90
2019-03-31T00:44:42.155Z,4.60
2019-03-31T00:47:43.351Z,4.50
2019-03-31T00:50:45.431Z,4.50
2019-03-31T00:53:46.528Z,4.30
2019-03-31T00:56:49.096Z,4.50
2019-03-31T00:59:52.124Z,4.50
2019-03-31T01:02:54.119Z,4.50
2019-03-31T01:05:55.259Z,4.60
2019-03-31T01:08:57.812Z,4.70
2019-03-31T01:11:59.230Z,4.60
2019-03-31T01:15:07.554Z,4.60
2019-03-31T01:18:11.508Z,4.70
2019-03-31T01:21:13.712Z,4.70
2019-03-31T01:24:15.585Z,4.70
2019-03-31T01:27:18.195Z,4.70
2019-03-31T01:30:20.551Z,4.70
2019-03-31T01:33:22.224Z,4.70
2019-03-31T01:36:24.234Z,4.60
2019-03-31T01:39:26.988Z,4.60
2019-03-31T01:42:28.832Z,4.50
2019-03-31T01:45:30.599Z,4.50
2019-03-31T01:48:32.438Z,4.30
2019-03-31T01:51:34.578Z,4.30
2019-03-31T01:54:35.939Z,4.30
2019-03-31T01:57:36.908Z,4.20
2019-03-31T02:00:41.362Z,4.30
2019-03-31T02:03:43.341Z,4.30
2019-03-31T02:06:45.333Z,4.30
2019-03-31T02:09:46.568Z,4.30
2019-03-31T02:12:47.891Z,4.20
2019-03-31T02:15:50.075Z,4.30
2019-03-31T02:18:51.962Z,4.30
2019-03-31T02:21:53.137Z,4.30
2019-03-31T02:24:55.130Z,4.30
2019-03-31T02:27:57.131Z,4.40
2019-03-31T02:30:59.048Z,4.20
2019-03-31T02:34:00.163Z,4.10
2019-03-31T02:37:11.324Z,4.20
2019-03-31T02:40:13.424Z,4.20
2019-03-31T02:43:14.532Z,4.10
2019-03-31T02:46:15.899Z,4.00
2019-03-31T02:49:17.655Z,4.00
2019-03-31T02:52:20.028Z,4.00
2019-03-31T02:55:21.009Z,4.00
2019-03-31T02:58:32.055Z,4.00
2019-03-31T03:01:33.297Z,4.00
2019-03-31T03:04:35.320Z,3.90
2019-03-31T03:07:36.340Z,3.90
2019-03-31T03:10:46.503Z,3.90
2019-03-31T03:13:57.532Z,3.80
2019-03-31T03:16:58.613Z,3.90
2019-03-31T03:20:00.689Z,3.90
2019-03-31T03:23:02.791Z,3.90
2019-03-31T03:26:03.845Z,3.90
2019-03-31T03:29:05.932Z,3.70
2019-03-31T03:32:07.965Z,3.80
2019-03-31T03:35:10.089Z,3.70
2019-03-31T03:38:11.302Z,3.80
2019-03-31T03:41:12.385Z,3.80
2019-03-31T03:44:13.429Z,3.80
2019-03-31T03:47:14.470Z,3.80
2019-03-31T03:50:16.708Z,3.70
2019-03-31T03:53:18.722Z,3.70
2019-03-31T03:56:19.788Z,3.90
2019-03-31T03:59:21.133Z,3.70
2019-03-31T04:02:23.068Z,3.60
2019-03-31T04:05:25.150Z,3.60
2019-03-31T04:08:26.577Z,3.70
2019-03-31T04:11:28.677Z,3.70
2019-03-31T04:14:29.735Z,3.70
2019-03-31T04:17:40.885Z,3.80
2019-03-31T04:20:43.016Z,3.90
2019-03-31T04:23:44.194Z,3.90
2019-03-31T04:26:55.239Z,3.90
2019-03-31T04:29:56.477Z,3.90
2019-03-31T04:33:07.580Z,3.90
2019-03-31T04:36:09.665Z,4.10
2019-03-31T04:39:10.534Z,4.00
2019-03-31T04:42:21.509Z,4.00
2019-03-31T04:45:22.714Z,4.10
2019-03-31T04:48:24.680Z,3.90
2019-03-31T04:51:26.648Z,3.90
2019-03-31T04:54:28.696Z,3.90
2019-03-31T04:57:29.755Z,3.90
2019-03-31T05:00:30.927Z,3.90
2019-03-31T05:03:32.020Z,3.70
2019-03-31T05:06:34.161Z,3.70
2019-03-31T05:09:35.415Z,3.80
2019-03-31T05:12:36.353Z,3.90
2019-03-31T05:15:37.527Z,3.90
2019-03-31T05:18:48.558Z,4.00
2019-03-31T05:21:59.655Z,3.90
2019-03-31T05:25:00.919Z,3.90
2019-03-31T05:28:01.985Z,3.90
2019-03-31T05:31:03.117Z,3.90
2019-03-31T05:34:18.328Z,3.80
2019-03-31T05:37:09.229Z,3.90
2019-03-31T05:40:11.373Z,4.00
2019-03-31T05:43:13.279Z,3.90
2019-03-31T05:46:14.584Z,3.90
2019-03-31T05:49:16.501Z,3.90
2019-03-31T05:52:17.508Z,4.00
2019-03-31T05:55:19.696Z,4.00
2019-03-31T05:58:20.897Z,4.10
2019-03-31T06:01:23.103Z,3.90
2019-03-31T06:04:33.131Z,3.80
2019-03-31T06:07:27.128Z,3.90
2019-03-31T06:10:28.058Z,4.10
2019-03-31T06:13:30.149Z,4.10
2019-03-31T06:16:32.115Z,4.20
2019-03-31T06:19:34.243Z,4.20
2019-03-31T06:22:35.260Z,4.20
2019-03-31T06:25:46.299Z,4.20
2019-03-31T06:28:48.072Z,4.40
2019-03-31T06:31:49.044Z,4.40
2019-03-31T06:34:59.480Z,4.50
2019-03-31T06:38:01.517Z,4.50
2019-03-31T06:41:03.501Z,4.50
2019-03-31T06:44:04.727Z,4.50
2019-03-31T06:47:05.830Z,4.70
2019-03-31T06:50:07.243Z,4.60
2019-03-31T06:53:09.349Z,4.70
2019-03-31T06:56:11.352Z,4.70
2019-03-31T06:59:13.415Z,4.70
2019-03-31T07:02:17.619Z,4.90
2019-03-31T07:05:19.451Z,4.90
2019-03-31T07:08:21.639Z,5.00
2019-03-31T07:11:23.568Z,5.10
2019-03-31T07:14:25.556Z,5.10
2019-03-31T07:17:26.616Z,5.10
2019-03-31T07:20:28.548Z,5.30
2019-03-31T07:23:29.656Z,5.30
2019-03-31T07:26:30.809Z,5.40
2019-03-31T07:29:32.788Z,5.40
2019-03-31T07:32:33.916Z,5.60
2019-03-31T07:35:38.824Z,5.60
2019-03-31T07:38:39.689Z,5.70
2019-03-31T07:41:40.851Z,5.80
2019-03-31T07:44:42.852Z,5.90
2019-03-31T07:47:44.740Z,6.10
2019-03-31T07:50:45.983Z,6.20
2019-03-31T07:53:57.171Z,6.20
2019-03-31T07:56:58.392Z,6.50
2019-03-31T07:59:59.747Z,6.70
2019-03-31T08:03:01.836Z,6.80
2019-03-31T08:06:02.899Z,7.10
2019-03-31T08:09:05.208Z,7.30
2019-03-31T08:12:06.493Z,7.50
2019-03-31T08:15:08.636Z,7.80
2019-03-31T08:18:09.838Z,8.00
2019-03-31T08:21:11.896Z,8.20
2019-03-31T08:24:14.009Z,8.40
2019-03-31T08:27:15.947Z,8.70
2019-03-31T08:30:18.088Z,8.80
2019-03-31T08:33:20.179Z,9.10
2019-03-31T08:36:22.232Z,9.40
2019-03-31T08:39:23.555Z,9.50
2019-03-31T08:42:25.575Z,9.70
2019-03-31T08:45:30.373Z,9.90
2019-03-31T08:48:30.875Z,10.00
2019-03-31T08:51:31.948Z,10.20
2019-03-31T08:54:42.981Z,10.10
2019-03-31T08:57:44.124Z,10.20
2019-03-31T09:04:16.295Z,10.40
2019-03-31T09:07:17.711Z,10.40
2019-03-31T09:10:19.723Z,10.40
2019-03-31T09:13:22.835Z,10.50
2019-03-31T09:16:25.404Z,10.60
2019-03-31T09:19:27.244Z,10.70
2019-03-31T09:22:29.415Z,10.80
2019-03-31T09:25:30.468Z,10.90
2019-03-31T09:28:31.569Z,11.10
2019-03-31T09:31:33.801Z,11.20
2019-03-31T09:34:35.190Z,11.50
2019-03-31T09:37:36.288Z,11.80
2019-03-31T09:40:37.393Z,12.00
2019-03-31T09:43:39.408Z,12.20
2019-03-31T09:46:40.675Z,12.50
2019-03-31T09:49:43.758Z,12.70
2019-03-31T09:52:44.818Z,12.90
2019-03-31T09:55:56.123Z,13.10
2019-03-31T09:58:58.232Z,13.30
2019-03-31T10:01:59.980Z,13.10
2019-03-31T10:05:02.032Z,13.30
2019-03-31T10:08:03.031Z,13.50
2019-03-31T10:11:04.682Z,13.70
2019-03-31T10:14:06.213Z,13.70
2019-03-31T10:17:17.360Z,13.60
2019-03-31T10:20:19.424Z,13.80
2019-03-31T10:23:21.608Z,13.90
2019-03-31T10:26:31.767Z,13.70
2019-03-31T10:29:25.948Z,13.70
2019-03-31T10:32:26.997Z,13.90
2019-03-31T10:35:37.145Z,14.20
2019-03-31T10:38:47.267Z,14.30
2019-03-31T10:41:48.322Z,14.30
2019-03-31T10:44:49.428Z,14.50
2019-03-31T10:47:51.484Z,14.80
2019-03-31T10:50:52.620Z,14.80
2019-03-31T10:54:04.546Z,14.70
2019-03-31T10:57:05.883Z,14.60
2019-03-31T11:00:07.797Z,14.60
2019-03-31T11:03:08.758Z,14.70
2019-03-31T11:06:18.880Z,15.10
2019-03-31T11:09:29.940Z,14.90
2019-03-31T11:12:31.796Z,14.50
2019-03-31T11:15:33.904Z,14.40
2019-03-31T11:18:36.077Z,14.30
2019-03-31T11:21:42.692Z,14.20
2019-03-31T11:24:44.447Z,14.20
2019-03-31T11:27:46.272Z,14.10
2019-03-31T11:30:48.214Z,13.80
2019-03-31T11:33:50.204Z,14.00
2019-03-31T11:36:51.353Z,14.00
2019-03-31T11:39:52.399Z,14.10
2019-03-31T11:42:54.476Z,13.70
2019-03-31T11:45:56.560Z,13.60
2019-03-31T11:48:57.824Z,14.10
2019-03-31T11:51:58.968Z,14.40
2019-03-31T11:55:01.099Z,14.60
2019-03-31T11:58:02.206Z,14.50
2019-03-31T12:01:03.532Z,14.50
2019-03-31T12:04:05.572Z,14.70
2019-03-31T12:07:07.567Z,14.90
2019-03-31T12:10:08.602Z,15.00
2019-03-31T12:13:06.270Z,15.20
2019-03-31T12:16:07.832Z,15.20
2019-03-31T12:19:10.028Z,15.10
2019-03-31T12:22:11.100Z,15.20
2019-03-31T12:25:21.340Z,14.60
2019-03-31T12:28:32.520Z,14.20
2019-03-31T12:31:33.724Z,14.00
2019-03-31T12:34:34.869Z,13.80
2019-03-31T12:37:42.263Z,13.90
2019-03-31T12:40:40.084Z,13.90
2019-03-31T12:43:41.215Z,13.80
2019-03-31T12:46:51.424Z,13.70
2019-03-31T12:49:53.760Z,13.70
2019-03-31T12:52:56.120Z,13.70
2019-03-31T12:56:00.263Z,13.60
2019-03-31T12:59:01.535Z,13.40
2019-03-31T13:02:03.677Z,13.40
2019-03-31T13:05:04.896Z,13.50
2019-03-31T13:08:07.017Z,13.70
2019-03-31T13:11:08.008Z,14.00
2019-03-31T13:14:10.279Z,13.80
2019-03-31T13:17:11.404Z,13.70
2019-03-31T13:20:21.728Z,13.60
2019-03-31T13:23:23.632Z,13.50
2019-03-31T13:26:24.739Z,13.30
2019-03-31T13:29:38.351Z,13.40
2019-03-31T13:32:39.093Z,13.30
2019-03-31T13:35:53.120Z,13.30
2019-03-31T13:38:53.337Z,13.30
2019-03-31T13:42:03.584Z,13.40
2019-03-31T13:45:14.715Z,13.10
2019-03-31T13:48:15.828Z,12.70
2019-03-31T13:51:26.899Z,12.60
2019-03-31T13:54:28.229Z,12.70
2019-03-31T13:57:31.512Z,12.90
2019-03-31T14:00:33.551Z,13.00
2019-03-31T14:03:35.469Z,13.20
2019-03-31T14:06:38.334Z,13.20
2019-03-31T14:09:39.880Z,13.20
2019-03-31T14:12:40.865Z,13.00
2019-03-31T14:15:47.853Z,12.90
2019-03-31T14:18:49.788Z,12.60
2019-03-31T14:21:50.873Z,12.50
2019-03-31T14:25:02.022Z,12.60
2019-03-31T14:27:49.999Z,12.50
2019-03-31T14:30:51.340Z,12.40
2019-03-31T14:33:53.466Z,12.30
2019-03-31T14:36:54.716Z,12.30
2019-03-31T14:39:55.851Z,12.30
2019-03-31T14:43:06.962Z,12.10
2019-03-31T14:46:09.022Z,11.90
2019-03-31T14:49:11.040Z,12.00
2019-03-31T14:52:26.293Z,12.00
2019-03-31T14:55:15.308Z,12.00
2019-03-31T14:58:16.422Z,12.00
2019-03-31T15:01:21.099Z,11.70
2019-03-31T15:04:21.328Z,11.40
2019-03-31T15:07:31.811Z,11.50
2019-03-31T15:10:33.635Z,11.30
2019-03-31T15:13:35.616Z,11.30
2019-03-31T15:16:37.680Z,11.30
2019-03-31T15:19:39.543Z,11.20
2019-03-31T15:22:41.592Z,11.00
2019-03-31T15:25:43.577Z,10.70
2019-03-31T15:28:45.743Z,10.80
2019-03-31T15:31:46.856Z,10.40
2019-03-31T15:34:48.860Z,10.30
2019-03-31T15:37:50.875Z,10.20
2019-03-31T15:40:52.704Z,10.00
2019-03-31T15:43:54.582Z,9.80
2019-03-31T15:46:55.720Z,9.70
2019-03-31T15:50:06.804Z,9.70
2019-03-31T15:53:09.848Z,9.70
2019-03-31T15:56:11.943Z,9.90
2019-03-31T15:59:13.224Z,9.90
2019-03-31T16:02:25.878Z,10.00
2019-03-31T16:05:27.453Z,10.00
2019-03-31T16:08:29.588Z,9.80
2019-03-31T16:11:31.447Z,9.80
2019-03-31T16:14:32.484Z,9.80
2019-03-31T16:17:42.670Z,9.70
2019-03-31T16:20:44.716Z,9.50
2019-03-31T16:23:45.944Z,9.50
2019-03-31T16:26:48.171Z,9.40
2019-03-31T16:29:50.300Z,9.40
2019-03-31T16:32:51.532Z,9.40
2019-03-31T16:35:53.495Z,9.40
2019-03-31T16:38:54.488Z,9.40
2019-03-31T16:41:56.496Z,9.20
2019-03-31T16:44:58.680Z,9.20
2019-03-31T16:47:59.596Z,9.10
2019-03-31T16:51:06.808Z,8.80
2019-03-31T16:54:07.824Z,9.00
2019-03-31T16:57:18.912Z,9.10
2019-03-31T17:00:21.032Z,9.10
2019-03-31T17:03:31.968Z,9.20
2019-03-31T17:06:33.024Z,9.30
2019-03-31T17:09:34.168Z,9.00
2019-03-31T17:12:41.256Z,8.90
2019-03-31T17:15:42.228Z,8.90
2019-03-31T17:18:53.196Z,8.90
2019-03-31T17:21:54.312Z,8.80
2019-03-31T17:25:05.311Z,9.00
2019-03-31T17:28:10.176Z,9.00
2019-03-31T17:31:11.351Z,9.00
2019-03-31T17:34:12.269Z,9.00
2019-03-31T17:37:22.412Z,9.10
2019-03-31T17:40:23.597Z,9.00
2019-03-31T17:43:24.736Z,9.10
2019-03-31T17:46:35.023Z,9.10
2019-03-31T17:49:36.956Z,9.10
2019-03-31T17:52:38.135Z,9.10
2019-03-31T17:55:41.162Z,9.00
2019-03-31T17:58:42.281Z,9.00
2019-03-31T18:01:43.425Z,9.00
2019-03-31T18:04:53.437Z,8.90
2019-03-31T18:07:55.126Z,8.80
2019-03-31T18:10:56.290Z,8.70
2019-03-31T18:13:57.372Z,8.70
2019-03-31T18:17:07.449Z,8.60
2019-03-31T18:20:08.561Z,8.60
2019-03-31T18:23:09.654Z,8.50
2019-03-31T18:26:11.521Z,8.40
2019-03-31T18:29:12.682Z,8.30
2019-03-31T18:32:13.952Z,8.10
2019-03-31T18:35:16.767Z,8.10
2019-03-31T18:38:20.012Z,8.10
2019-03-31T18:41:21.172Z,8.20
2019-03-31T18:44:22.162Z,8.20
2019-03-31T18:47:33.396Z,8.00
2019-03-31T18:50:35.355Z,7.90
2019-03-31T18:54:00.163Z,7.90
2019-03-31T18:57:33.519Z,7.80
2019-03-31T19:00:57.696Z,7.70
2019-03-31T19:04:18.971Z,7.60
2019-03-31T19:07:40.223Z,7.50
2019-03-31T19:11:02.094Z,7.70
2019-03-31T19:14:23.770Z,7.70
2019-03-31T19:17:41.544Z,7.70
2019-03-31T19:21:11.307Z,7.80
2019-03-31T19:24:17.888Z,7.90
2019-03-31T19:27:32.169Z,7.80
2019-03-31T19:30:53.302Z,8.00
2019-03-31T19:34:15.611Z,7.90
2019-03-31T19:37:42.736Z,8.00
2019-03-31T19:41:11.950Z,7.90
2019-03-31T19:44:30.491Z,7.90
2019-03-31T19:47:45.765Z,8.00
2019-03-31T19:51:07.617Z,8.00
2019-03-31T19:54:34.909Z,8.10
2019-03-31T19:58:07.327Z,8.00
2019-03-31T20:01:33.648Z,8.00
2019-03-31T20:04:54.610Z,8.10
2019-03-31T20:08:21.795Z,8.10
2019-03-31T20:11:45.977Z,8.10
2019-03-31T20:15:07.642Z,8.00
2019-03-31T20:18:31.610Z,8.00
2019-03-31T20:21:42.483Z,8.10
2019-03-31T20:25:01.179Z,8.00
2019-03-31T20:28:24.296Z,8.10
2019-03-31T20:31:53.747Z,7.90
2019-03-31T20:35:24.021Z,7.90
2019-03-31T20:38:35.456Z,7.90
2019-03-31T20:42:00.330Z,7.90
2019-03-31T20:45:01.740Z,7.80
2019-03-31T20:48:03.745Z,7.80
2019-03-31T20:51:05.960Z,7.80
2019-03-31T20:54:10.072Z,7.80
2019-03-31T20:57:11.925Z,7.90
2019-03-31T21:00:13.237Z,7.90
2019-03-31T21:03:15.263Z,7.90
2019-03-31T21:06:17.737Z,8.00
2019-03-31T21:09:19.560Z,7.90
2019-03-31T21:12:21.732Z,7.90
2019-03-31T21:15:23.891Z,7.90
2019-03-31T21:18:25.138Z,7.90
2019-03-31T21:21:36.141Z,7.80
2019-03-31T21:24:47.296Z,7.80
2019-03-31T21:27:59.050Z,7.70
2019-03-31T21:31:01.982Z,7.80
2019-03-31T21:34:06.383Z,7.80
2019-03-31T21:37:09.145Z,7.70
2019-03-31T21:40:13.223Z,7.70
2019-03-31T21:43:15.603Z,7.70
2019-03-31T21:46:17.051Z,7.60
2019-03-31T21:49:18.176Z,7.60
2019-03-31T21:52:19.313Z,7.50
2019-03-31T21:55:21.307Z,7.40
2019-03-31T21:58:23.418Z,7.10
2019-03-31T22:01:25.440Z,7.10
2019-03-31T22:04:26.576Z,6.90
2019-03-31T22:07:27.770Z,6.70
2019-03-31T22:10:38.911Z,6.60
2019-03-31T22:13:40.224Z,6.60
2019-03-31T22:16:43.205Z,6.40
2019-03-31T22:19:45.281Z,6.30
2019-03-31T22:22:46.285Z,6.40
2019-03-31T22:25:47.396Z,6.20
2019-03-31T22:28:58.525Z,6.10
2019-03-31T22:32:00.627Z,6.00
2019-03-31T22:35:01.629Z,6.20
2019-03-31T22:38:12.888Z,6.00
2019-03-31T22:41:15.080Z,6.00
2019-03-31T22:44:15.967Z,6.00
2019-03-31T22:47:26.835Z,6.00
2019-03-31T22:50:28.050Z,5.90
2019-03-31T22:53:29.151Z,5.90
2019-03-31T22:56:30.306Z,5.90
2019-03-31T22:59:40.424Z,5.80
2019-03-31T23:02:41.563Z,5.70
2019-03-31T23:05:42.787Z,5.60
2019-03-31T23:08:44.009Z,5.70
2019-03-31T23:11:46.031Z,5.60
2019-03-31T23:14:48.028Z,5.50
2019-03-31T23:17:49.123Z,5.50
2019-03-31T23:21:00.288Z,5.60
2019-03-31T23:24:02.335Z,5.50
2019-03-31T23:27:04.286Z,5.50
2019-03-31T23:30:07.482Z,5.40
2019-03-31T23:33:09.191Z,5.20
2019-03-31T23:36:11.300Z,5.40
2019-03-31T23:39:13.171Z,5.10
2019-03-31T23:42:15.571Z,4.90
2019-03-31T23:45:19.510Z,4.80
2019-03-31T23:48:20.700Z,4.70
2019-03-31T23:51:31.664Z,4.80
2019-03-31T23:54:32.804Z,4.70
2019-03-31T23:57:40.677Z,4.70
